Terminal Aerodrome Forecast
Issued by NWS Jacksonville, FL

Home | Current Version | Previous Version | Text Only | Print | Product List | Glossary On
Versions: 1 2 3 4 5 6 7 8 9 10 11 12 13 14 15 16 17 18 19 20 21 22
421
FTUS42 KJAX 141720
TAFGNV
TAF
KGNV 141720Z 1418/1518 08010KT P6SM SCT025
     FM150200 09003KT P6SM SCT020
     FM150700 10002KT 4SM BR BKN020
     FM151000 11002KT 2SM BR OVC015
     FM151400 14010KT P6SM OVC025
     FM151700 15012G18KT P6SM OVC035=

USA.gov is the U.S. government's official web portal to all federal, state and local government web resources and services.